WAPP/AMQ METAR and TAF weather

Enter ICAO airport designator
Station Type Date Time Source
WAPP METAR 2022/06/27 08:30 UTC NOAA

WAPP 270830Z 36004KT 5000 -RA FEW016CB SCT017 25/24 Q1007 NOSIGCB TO SE


Station Type Date Time Source
WAPP Decoded METAR 2022/06/27 08:30 UTC NOAA

Ambon / Pattimura, Indonesia (WAPP) 03-42S 128-05E 12M
Jun 27, 2022 - 04:30 AM EDT / 2022.06.27 0830 UTC
Wind: from the N (360 degrees) at 5 MPH (4 KT):0
Visibility: 3 mile(s):0
Sky conditions: partly cloudy
Weather: light rain; Cumulonimbus clouds observed
Temperature: 77 F (25 C)
Dew Point: 75 F (24 C)
Relative Humidity: 94%
Pressure (altimeter): 29.74 in. Hg (1007 hPa)
ob: WAPP 270830Z 36004KT 5000 -RA FEW016CB SCT017 25/24 Q1007 NOSIGCB TO SE
cycle: 8

Station Type Date Time Source
WAPP TAF 2015/06/30 00:57 UTC NOAA

TAF WAPP 302300Z 0100/0124 34006KT 9999 SCT018
TEMPO 0101/0104 7000 -RA BKN017
BECMG 0105/0107 21006KT
BECMG 0109/0111 32006KT

Example: see airport list